createdAt,value
2016-09-08T00:00:27.089Z,1143.19
2016-09-08T00:01:27.090Z,1143.24
2016-09-08T00:02:27.102Z,1143.14
2016-09-08T00:03:27.341Z,1143.01
2016-09-08T00:04:27.093Z,1142.92
2016-09-08T00:05:27.107Z,1142.92
2016-09-08T00:06:27.090Z,1142.91
2016-09-08T00:07:27.110Z,1142.72
2016-09-08T00:08:27.106Z,1142.58
2016-09-08T00:09:27.095Z,1142.58
2016-09-08T00:10:27.097Z,1142.45
2016-09-08T00:11:27.106Z,1142.28
2016-09-08T00:12:27.105Z,1142.28
2016-09-08T00:13:27.108Z,1142.4
2016-09-08T00:14:27.127Z,1142.17
2016-09-08T00:15:27.103Z,1142.25
2016-09-08T00:16:27.110Z,1141.99
2016-09-08T00:17:27.645Z,1141.97
2016-09-08T00:18:27.110Z,1141.84
2016-09-08T00:19:27.103Z,1141.63
2016-09-08T00:20:27.114Z,1141.62
2016-09-08T00:21:27.109Z,1141.32
2016-09-08T00:22:27.106Z,1141.1
2016-09-08T00:23:27.143Z,1141.07
2016-09-08T00:24:27.106Z,1141.07
2016-09-08T00:25:27.111Z,1141.24
2016-09-08T00:26:27.117Z,1141.3
2016-09-08T00:27:27.126Z,1141.03
2016-09-08T00:28:27.699Z,1141.1
2016-09-08T00:29:27.110Z,1141.22
2016-09-08T00:30:27.122Z,1140.88
2016-09-08T00:31:27.123Z,1140.97
2016-09-08T00:32:27.124Z,1140.84
2016-09-08T00:33:27.124Z,1140.77
2016-09-08T00:34:27.122Z,1140.73
2016-09-08T00:35:27.143Z,1140.6
2016-09-08T00:36:27.118Z,1140.32
2016-09-08T00:37:27.122Z,1140.23
2016-09-08T00:38:27.125Z,1139.92
2016-09-08T00:39:27.123Z,1139.85
2016-09-08T00:40:27.131Z,1139.76
2016-09-08T00:41:27.135Z,1139.5
2016-09-08T00:42:27.138Z,1139.28
2016-09-08T00:43:27.124Z,1139.05
2016-09-08T00:44:27.124Z,1138.69
2016-09-08T00:45:27.172Z,1138.47
2016-09-08T00:46:27.157Z,1138.48
2016-09-08T00:47:27.129Z,1138.31
2016-09-08T00:48:27.137Z,1138.34
2016-09-08T00:49:27.129Z,1138.17
2016-09-08T00:50:27.137Z,1138.02
2016-09-08T00:51:27.129Z,1137.93
2016-09-08T00:52:27.155Z,1137.72
2016-09-08T00:53:27.142Z,1137.57
2016-09-08T00:54:27.158Z,1137.17
2016-09-08T00:55:27.136Z,1137.07
2016-09-08T00:56:27.132Z,1137
2016-09-08T00:57:27.146Z,1136.76
2016-09-08T00:58:27.144Z,1136.53
2016-09-08T00:59:27.324Z,1136.52
2016-09-08T01:00:27.140Z,1136.46
2016-09-08T01:01:27.154Z,1136.13
2016-09-08T01:02:27.141Z,1136.06
2016-09-08T01:03:27.156Z,1135.97
2016-09-08T01:04:27.146Z,1135.53
2016-09-08T01:05:27.139Z,1135.31
2016-09-08T01:06:27.173Z,1135.13
2016-09-08T01:07:27.145Z,1134.83
2016-09-08T01:08:27.161Z,1134.79
2016-09-08T01:09:27.156Z,1134.78
2016-09-08T01:10:27.236Z,1134.59
2016-09-08T01:11:27.464Z,1134.62
2016-09-08T01:12:27.154Z,1134.47
2016-09-08T01:13:27.159Z,1134.28
2016-09-08T01:14:27.177Z,1134.48
2016-09-08T01:15:27.155Z,1134.58
2016-09-08T01:16:27.167Z,1134.7
2016-09-08T01:17:27.156Z,1134.71
2016-09-08T01:18:27.175Z,1134.5
2016-09-08T01:19:27.150Z,1134.36
2016-09-08T01:20:27.189Z,1134.17
2016-09-08T01:21:27.156Z,1134.07
2016-09-08T01:22:27.169Z,1134.02
2016-09-08T01:23:27.166Z,1133.74
2016-09-08T01:24:27.155Z,1133.78
2016-09-08T01:25:27.171Z,1133.74
2016-09-08T01:26:27.175Z,1133.6
2016-09-08T01:27:27.164Z,1133.53
2016-09-08T01:28:27.168Z,1133.17
2016-09-08T01:29:27.176Z,1132.83
2016-09-08T01:30:27.168Z,1132.42
2016-09-08T01:31:27.162Z,1131.95
2016-09-08T01:32:27.231Z,1131.69
2016-09-08T01:33:27.183Z,1131.26
2016-09-08T01:34:27.182Z,1130.73
2016-09-08T01:35:27.175Z,1130.33
2016-09-08T01:36:27.179Z,1130.15
2016-09-08T01:37:27.192Z,1129.55
2016-09-08T01:38:27.193Z,1129.29
2016-09-08T01:39:27.195Z,1128.82
2016-09-08T01:40:27.169Z,1128.47
2016-09-08T01:41:27.191Z,1127.92
2016-09-08T01:42:27.186Z,1127.33
2016-09-08T01:43:27.174Z,1126.75
2016-09-08T01:44:27.187Z,1125.95
2016-09-08T01:45:27.190Z,1125.47
2016-09-08T01:46:27.185Z,1124.77
2016-09-08T01:47:27.198Z,1124.54
2016-09-08T01:48:27.189Z,1124.17
2016-09-08T01:49:27.210Z,1123.84
2016-09-08T01:50:27.200Z,1123.45
2016-09-08T01:51:27.193Z,1122.94
2016-09-08T01:52:27.202Z,1122.87
2016-09-08T01:53:27.206Z,1122.6
2016-09-08T01:54:27.198Z,1122.33
2016-09-08T01:55:27.191Z,1122
2016-09-08T01:56:27.193Z,1121.5
2016-09-08T01:57:27.212Z,1121.24
2016-09-08T01:58:27.200Z,1120.81
2016-09-08T01:59:27.202Z,1120.32
2016-09-08T02:00:27.201Z,1119.82
2016-09-08T02:01:27.218Z,1119.35
2016-09-08T02:02:27.203Z,1119.04
2016-09-08T02:03:27.197Z,1118.88
2016-09-08T02:04:27.218Z,1118.41
2016-09-08T02:05:27.203Z,1118.09
2016-09-08T02:06:27.202Z,1117.85
2016-09-08T02:07:27.208Z,1117.2
2016-09-08T02:08:27.201Z,1116.95
2016-09-08T02:09:27.208Z,1116.74
2016-09-08T02:10:27.211Z,1116.56
2016-09-08T02:11:27.207Z,1116.24
2016-09-08T02:12:27.204Z,1116.08
2016-09-08T02:13:27.211Z,1115.85
2016-09-08T02:14:27.205Z,1115.65
2016-09-08T02:15:27.208Z,1115.39
2016-09-08T02:16:27.202Z,1115.4
2016-09-08T02:17:27.224Z,1115.22
2016-09-08T02:18:27.219Z,1115.17
2016-09-08T02:19:27.208Z,1115.25
2016-09-08T02:20:27.218Z,1115.1
2016-09-08T02:21:27.221Z,1115.08
2016-09-08T02:22:27.216Z,1114.82
2016-09-08T02:23:27.238Z,1114.8
2016-09-08T02:24:27.221Z,1114.6
2016-09-08T02:25:27.219Z,1114.53
2016-09-08T02:26:27.225Z,1114.6
2016-09-08T02:27:27.225Z,1114.29
2016-09-08T02:28:27.221Z,1114.09
2016-09-08T02:29:27.213Z,1114.08
2016-09-08T02:30:27.220Z,1114.23
2016-09-08T02:31:27.225Z,1114.11
2016-09-08T02:32:27.220Z,1114.26
2016-09-08T02:33:27.224Z,1114.23
2016-09-08T02:34:27.233Z,1114.56
2016-09-08T02:35:27.221Z,1114.21
2016-09-08T02:36:27.232Z,1114.24
2016-09-08T02:37:27.245Z,1114.02
2016-09-08T02:38:27.232Z,1113.85
2016-09-08T02:39:27.233Z,1113.52
2016-09-08T02:40:27.249Z,1113.41
2016-09-08T02:41:27.238Z,1113
2016-09-08T02:42:27.253Z,1112.83
2016-09-08T02:43:27.248Z,1112.46
2016-09-08T02:44:27.236Z,1112.07
2016-09-08T02:45:27.243Z,1111.84
2016-09-08T02:46:27.253Z,1111.5
2016-09-08T02:47:27.239Z,1110.89
2016-09-08T02:48:27.235Z,1110.7
2016-09-08T02:49:27.236Z,1110.14
2016-09-08T02:50:27.239Z,1110.02
2016-09-08T02:51:27.251Z,1109.59
2016-09-08T02:52:27.237Z,1109.11
2016-09-08T02:53:27.252Z,1109.16
2016-09-08T02:54:27.267Z,1108.86
2016-09-08T02:55:27.249Z,1108.52
2016-09-08T02:56:27.248Z,1108.23
2016-09-08T02:57:27.299Z,1107.84
2016-09-08T02:58:27.244Z,1107.63
2016-09-08T02:59:27.238Z,1107.49
2016-09-08T03:00:27.258Z,1107.44
2016-09-08T03:01:27.252Z,1107.26
2016-09-08T03:02:27.241Z,1107.19
2016-09-08T03:03:27.253Z,1106.52
2016-09-08T03:04:27.252Z,1106.41
2016-09-08T03:05:27.251Z,1106.09
2016-09-08T03:06:27.252Z,1106.01
2016-09-08T03:07:27.245Z,1105.99
2016-09-08T03:08:27.252Z,1105.68
2016-09-08T03:09:27.276Z,1105.52
2016-09-08T03:10:27.251Z,1105.38
2016-09-08T03:11:27.270Z,1105.25
2016-09-08T03:12:27.265Z,1104.97
2016-09-08T03:13:27.285Z,1104.89
2016-09-08T03:14:27.264Z,1105.02
2016-09-08T03:15:27.269Z,1104.7
2016-09-08T03:16:27.271Z,1104.42
2016-09-08T03:17:27.286Z,1104.26
2016-09-08T03:18:27.263Z,1104.17
2016-09-08T03:19:27.274Z,1104.02
2016-09-08T03:20:27.297Z,1103.75
2016-09-08T03:21:27.276Z,1103.59
2016-09-08T03:22:27.281Z,1103.14
2016-09-08T03:23:27.271Z,1103.22
2016-09-08T03:24:27.268Z,1102.76
2016-09-08T03:25:27.270Z,1102.63
2016-09-08T03:26:27.286Z,1102.4
2016-09-08T03:27:27.271Z,1102.19
2016-09-08T03:28:27.259Z,1101.76
2016-09-08T03:29:27.291Z,1101.43
2016-09-08T03:30:27.280Z,1101.24
2016-09-08T03:31:27.268Z,1100.89
2016-09-08T03:32:27.288Z,1100.51
2016-09-08T03:33:27.271Z,1100.26
2016-09-08T03:34:27.272Z,1099.85
2016-09-08T03:35:27.285Z,1099.43
2016-09-08T03:36:27.289Z,1098.98
2016-09-08T03:37:27.266Z,1098.52
2016-09-08T03:38:27.290Z,1098.21
2016-09-08T03:39:27.284Z,1097.78
2016-09-08T03:40:27.284Z,1097.52
2016-09-08T03:41:27.284Z,1097.15
2016-09-08T03:42:27.288Z,1096.98
2016-09-08T03:43:27.288Z,1096.83
2016-09-08T03:44:27.282Z,1096.74
2016-09-08T03:45:27.281Z,1096.55
2016-09-08T03:46:27.289Z,1096.27
2016-09-08T03:47:27.290Z,1096.21
2016-09-08T03:48:27.291Z,1095.88
2016-09-08T03:49:27.294Z,1095.91
2016-09-08T03:50:27.304Z,1095.59
2016-09-08T03:51:27.313Z,1095.84
2016-09-08T03:52:27.285Z,1095.63
2016-09-08T03:53:27.293Z,1095.52
2016-09-08T03:54:27.318Z,1095.47
2016-09-08T03:55:27.293Z,1095.42
2016-09-08T03:56:27.298Z,1095.1
2016-09-08T03:57:27.298Z,1094.77
2016-09-08T03:58:27.300Z,1094.31
2016-09-08T03:59:27.297Z,1094.28
2016-09-08T04:00:27.298Z,1093.88
2016-09-08T04:01:27.315Z,1093.77
2016-09-08T04:02:27.307Z,1093.57
2016-09-08T04:03:27.317Z,1093.7
2016-09-08T04:04:27.297Z,1093.22
2016-09-08T04:05:27.303Z,1092.98
2016-09-08T04:06:27.329Z,1092.58
2016-09-08T04:07:27.302Z,1092.74
2016-09-08T04:08:27.313Z,1092.48
2016-09-08T04:09:27.323Z,1092.28
2016-09-08T04:10:27.304Z,1092.03
2016-09-08T04:11:27.326Z,1091.98
2016-09-08T04:12:27.317Z,1091.71
2016-09-08T04:13:27.328Z,1091.57
2016-09-08T04:14:27.316Z,1091.3
2016-09-08T04:15:27.323Z,1091.07
2016-09-08T04:16:27.331Z,1090.76
2016-09-08T04:17:27.318Z,1090.59
2016-09-08T04:18:27.315Z,1090.27
2016-09-08T04:19:27.315Z,1090.32
2016-09-08T04:20:27.323Z,1089.95
2016-09-08T04:21:27.314Z,1089.78
2016-09-08T04:22:27.307Z,1089.61
2016-09-08T04:23:27.314Z,1089.58
2016-09-08T04:24:27.317Z,1089.03
2016-09-08T04:25:27.317Z,1088.79
2016-09-08T04:26:27.330Z,1088.61
2016-09-08T04:27:27.317Z,1088.33
2016-09-08T04:28:27.315Z,1087.98
2016-09-08T04:29:27.327Z,1087.85
2016-09-08T04:30:27.331Z,1087.62
2016-09-08T04:31:27.316Z,1087.95
2016-09-08T04:32:27.329Z,1087.73
2016-09-08T04:33:27.332Z,1087.82
2016-09-08T04:34:27.334Z,1087.77
2016-09-08T04:35:27.313Z,1087.67
2016-09-08T04:36:27.338Z,1087.72
2016-09-08T04:37:27.315Z,1087.83
2016-09-08T04:38:27.330Z,1088.17
2016-09-08T04:39:27.334Z,1088.25
2016-09-08T04:40:27.335Z,1088.48
2016-09-08T04:41:27.328Z,1088.74
2016-09-08T04:42:27.335Z,1088.76
2016-09-08T04:43:27.349Z,1089.43
2016-09-08T04:44:27.330Z,1089.33
2016-09-08T04:45:27.331Z,1089.53
2016-09-08T04:46:27.332Z,1089.62
2016-09-08T04:47:27.330Z,1089.72
2016-09-08T04:48:27.346Z,1089.52
2016-09-08T04:49:27.344Z,1089.89
2016-09-08T04:50:27.350Z,1090.12
2016-09-08T04:51:27.348Z,1090.15
2016-09-08T04:52:27.339Z,1090.65
2016-09-08T04:53:27.359Z,1091.28
2016-09-08T04:54:27.350Z,1091.42
2016-09-08T04:55:27.345Z,1091.65
2016-09-08T04:56:27.353Z,1091.82
2016-09-08T04:57:27.344Z,1092.01
2016-09-08T04:58:27.347Z,1092.24
2016-09-08T04:59:27.344Z,1092.27
2016-09-08T05:00:27.361Z,1092.4
2016-09-08T05:01:27.347Z,1092.49
2016-09-08T05:02:27.349Z,1092.5
2016-09-08T05:03:27.347Z,1092.42
2016-09-08T05:04:27.348Z,1092.74
2016-09-08T05:05:27.353Z,1092.9
2016-09-08T05:06:27.347Z,1093.2
2016-09-08T05:07:27.356Z,1093.27
2016-09-08T05:08:27.347Z,1093.6
2016-09-08T05:09:27.364Z,1093.86
2016-09-08T05:10:27.363Z,1094.14
2016-09-08T05:11:27.351Z,1094.41
2016-09-08T05:12:27.361Z,1094.8
2016-09-08T05:13:27.365Z,1095.12
2016-09-08T05:14:27.362Z,1095.67
2016-09-08T05:15:27.379Z,1096.09
2016-09-08T05:16:27.363Z,1096.43
2016-09-08T05:17:27.362Z,1096.68
2016-09-08T05:18:27.378Z,1097.1
2016-09-08T05:19:27.361Z,1097.6
2016-09-08T05:20:27.382Z,1097.72
2016-09-08T05:21:27.374Z,1098.16
2016-09-08T05:22:27.360Z,1098.65
2016-09-08T05:23:27.360Z,1099.06
2016-09-08T05:24:27.361Z,1099.72
2016-09-08T05:25:27.366Z,1100.22
2016-09-08T05:26:27.375Z,1100.66
2016-09-08T05:27:27.361Z,1100.85
2016-09-08T05:28:27.398Z,1101.41
2016-09-08T05:29:27.377Z,1101.7
2016-09-08T05:30:28.176Z,1102.17
2016-09-08T05:31:27.818Z,1102.6
2016-09-08T05:32:27.382Z,1103.09
2016-09-08T05:33:27.378Z,1103.55
2016-09-08T05:34:27.371Z,1104.07
2016-09-08T05:35:27.371Z,1104.49
2016-09-08T05:36:27.380Z,1104.8
2016-09-08T05:37:27.383Z,1105.47
2016-09-08T05:38:27.392Z,1105.77
2016-09-08T05:39:27.380Z,1106.23
2016-09-08T05:40:27.379Z,1106.93
2016-09-08T05:41:27.401Z,1107.49
2016-09-08T05:42:27.393Z,1108.19
2016-09-08T05:43:27.380Z,1108.81
2016-09-08T05:44:27.409Z,1109.24
2016-09-08T05:45:27.393Z,1109.76
2016-09-08T05:46:27.386Z,1110.31
2016-09-08T05:47:27.393Z,1111.09
2016-09-08T05:48:27.385Z,1111.5
2016-09-08T05:49:27.384Z,1112.19
2016-09-08T05:50:27.393Z,1112.49
2016-09-08T05:51:27.386Z,1113.15
2016-09-08T05:52:27.416Z,1113.53
2016-09-08T05:53:27.397Z,1114.47
2016-09-08T05:54:27.408Z,1114.94
2016-09-08T05:55:27.399Z,1115.62
2016-09-08T05:56:27.399Z,1116.09
2016-09-08T05:57:27.468Z,1116.69
2016-09-08T05:58:27.395Z,1117.37
2016-09-08T05:59:27.410Z,1118
2016-09-08T06:00:27.411Z,1118.56
2016-09-08T06:01:27.390Z,1119.19
2016-09-08T06:02:27.398Z,1119.73
2016-09-08T06:03:27.400Z,1120.32
2016-09-08T06:04:27.405Z,1121.08
2016-09-08T06:05:27.411Z,1121.62
2016-09-08T06:06:27.413Z,1121.91
2016-09-08T06:07:27.399Z,1122.63
2016-09-08T06:08:27.416Z,1123.15
2016-09-08T06:09:27.410Z,1123.66
2016-09-08T06:10:27.403Z,1124.27
2016-09-08T06:11:27.412Z,1124.91
2016-09-08T06:12:27.414Z,1125.62
2016-09-08T06:13:27.417Z,1125.92
2016-09-08T06:14:27.440Z,1126.82
2016-09-08T06:15:27.435Z,1127.49
2016-09-08T06:16:27.441Z,1127.93
2016-09-08T06:17:27.420Z,1128.74
2016-09-08T06:18:27.420Z,1129.59
2016-09-08T06:19:27.425Z,1130.23
2016-09-08T06:20:27.423Z,1130.95
2016-09-08T06:21:27.423Z,1131.94
2016-09-08T06:22:27.424Z,1132.75
2016-09-08T06:23:27.427Z,1133.61
2016-09-08T06:24:27.415Z,1134.42
2016-09-08T06:25:27.415Z,1135.1
2016-09-08T06:26:27.430Z,1135.97
2016-09-08T06:27:27.427Z,1137.05
2016-09-08T06:28:27.427Z,1137.98
2016-09-08T06:29:27.420Z,1139.06
2016-09-08T06:30:27.445Z,1139.86
2016-09-08T06:31:27.425Z,1140.81
2016-09-08T06:32:27.430Z,1141.83
2016-09-08T06:33:27.476Z,1142.68
2016-09-08T06:34:27.436Z,1143.5
2016-09-08T06:35:27.425Z,1144.4
2016-09-08T06:36:27.438Z,1145.21
2016-09-08T06:37:27.442Z,1145.92
2016-09-08T06:38:27.433Z,1146.52
2016-09-08T06:39:27.445Z,1147.14
2016-09-08T06:40:27.430Z,1147.93
2016-09-08T06:41:27.444Z,1148.28
2016-09-08T06:42:27.442Z,1148.84
2016-09-08T06:43:27.441Z,1149.36
2016-09-08T06:44:27.441Z,1150.02
2016-09-08T06:45:27.442Z,1150.66
2016-09-08T06:46:27.457Z,1151.14
2016-09-08T06:47:27.443Z,1151.53
2016-09-08T06:48:27.447Z,1152.07
2016-09-08T06:49:27.443Z,1152.4
2016-09-08T06:50:27.460Z,1152.81
2016-09-08T06:51:27.439Z,1153.18
2016-09-08T06:52:27.442Z,1153.44
2016-09-08T06:53:27.464Z,1153.67
2016-09-08T06:54:27.448Z,1153.86
2016-09-08T06:55:27.462Z,1154.13
2016-09-08T06:56:27.445Z,1154.36
2016-09-08T06:57:27.458Z,1154.54
2016-09-08T06:58:27.475Z,1154.65
2016-09-08T06:59:27.444Z,1154.74
2016-09-08T07:00:27.444Z,1154.87
2016-09-08T07:01:27.467Z,1154.92
2016-09-08T07:02:27.462Z,1154.9
2016-09-08T07:03:27.473Z,1154.89
2016-09-08T07:04:27.458Z,1154.78
2016-09-08T07:05:27.470Z,1154.76
2016-09-08T07:06:27.454Z,1154.68
2016-09-08T07:07:27.458Z,1154.53
2016-09-08T07:08:27.458Z,1154.38
2016-09-08T07:09:27.466Z,1154.18
2016-09-08T07:10:27.526Z,1154.01
2016-09-08T07:11:27.461Z,1153.8
2016-09-08T07:12:27.465Z,1153.6
2016-09-08T07:13:27.463Z,1153.4
2016-09-08T07:14:27.477Z,1153.16
2016-09-08T07:15:27.473Z,1153.01
2016-09-08T07:16:27.504Z,1152.76
2016-09-08T07:17:27.460Z,1152.53
2016-09-08T07:18:27.461Z,1152.27
2016-09-08T07:19:27.485Z,1152.03
2016-09-08T07:20:27.471Z,1151.71
2016-09-08T07:21:27.489Z,1151.44
2016-09-08T07:22:27.476Z,1151.14
2016-09-08T07:23:27.472Z,1150.76
2016-09-08T07:24:27.474Z,1150.4
2016-09-08T07:25:27.494Z,1149.99
2016-09-08T07:26:27.471Z,1149.55
2016-09-08T07:27:27.480Z,1149.16
2016-09-08T07:28:27.490Z,1148.71
2016-09-08T07:29:27.480Z,1148.19
2016-09-08T07:30:27.501Z,1147.72
2016-09-08T07:31:27.506Z,1147.29
2016-09-08T07:32:27.496Z,1146.91
2016-09-08T07:33:27.497Z,1146.47
2016-09-08T07:34:27.507Z,1145.92
2016-09-08T07:35:27.490Z,1145.4
2016-09-08T07:36:27.489Z,1144.86
2016-09-08T07:37:27.494Z,1144.41
2016-09-08T07:38:27.525Z,1143.81
2016-09-08T07:39:27.536Z,1143.2
2016-09-08T07:40:27.496Z,1142.69
2016-09-08T07:41:27.506Z,1142.19
2016-09-08T07:42:27.496Z,1141.52
2016-09-08T07:43:27.489Z,1140.98
2016-09-08T07:44:27.495Z,1140.48
2016-09-08T07:45:27.490Z,1139.82
2016-09-08T07:46:27.514Z,1139.38
2016-09-08T07:47:27.508Z,1138.65
2016-09-08T07:48:27.495Z,1138.12
2016-09-08T07:49:27.508Z,1137.47
2016-09-08T07:50:27.493Z,1136.71
2016-09-08T07:51:27.523Z,1136.22
2016-09-08T07:52:27.522Z,1135.64
2016-09-08T07:53:27.529Z,1134.99
2016-09-08T07:54:27.508Z,1134.34
2016-09-08T07:55:27.498Z,1133.66
2016-09-08T07:56:27.522Z,1133.07
2016-09-08T07:57:27.509Z,1132.16
2016-09-08T07:58:27.513Z,1131.52
2016-09-08T07:59:27.514Z,1130.86
2016-09-08T08:00:27.527Z,1130
2016-09-08T08:01:27.533Z,1129.49
2016-09-08T08:02:27.526Z,1128.54
2016-09-08T08:03:27.519Z,1127.69
2016-09-08T08:04:27.509Z,1126.91
2016-09-08T08:05:27.525Z,1126.05
2016-09-08T08:06:27.529Z,1125.19
2016-09-08T08:07:27.534Z,1124.61
2016-09-08T08:08:27.511Z,1123.65
2016-09-08T08:09:27.516Z,1122.87
2016-09-08T08:10:27.536Z,1121.75
2016-09-08T08:11:27.543Z,1120.99
2016-09-08T08:12:27.536Z,1119.99
2016-09-08T08:13:27.542Z,1119.13
2016-09-08T08:14:27.550Z,1118.17
2016-09-08T08:15:27.528Z,1117
2016-09-08T08:16:27.522Z,1116.02
2016-09-08T08:17:27.558Z,1115.08
2016-09-08T08:18:27.537Z,1114.12
2016-09-08T08:19:27.523Z,1113.33
2016-09-08T08:20:27.539Z,1112.38
2016-09-08T08:21:27.528Z,1111.53
2016-09-08T08:22:27.553Z,1110.96
2016-09-08T08:23:27.541Z,1109.86
2016-09-08T08:24:27.537Z,1108.96
2016-09-08T08:25:27.541Z,1108.31
2016-09-08T08:26:27.539Z,1107.47
2016-09-08T08:27:27.550Z,1106.71
2016-09-08T08:28:27.529Z,1105.86
2016-09-08T08:29:27.540Z,1105.19
2016-09-08T08:30:27.555Z,1104.58
2016-09-08T08:31:27.559Z,1103.8
2016-09-08T08:32:27.548Z,1103.06
2016-09-08T08:33:27.554Z,1102.25
2016-09-08T08:34:27.564Z,1101.6
2016-09-08T08:35:27.556Z,1100.94
2016-09-08T08:36:27.555Z,1100.06
2016-09-08T08:37:27.562Z,1099.39
2016-09-08T08:38:27.561Z,1098.51
2016-09-08T08:39:27.554Z,1097.81
2016-09-08T08:40:27.558Z,1097
2016-09-08T08:41:27.562Z,1096.11
2016-09-08T08:42:27.554Z,1095.38
2016-09-08T08:43:27.582Z,1094.46
2016-09-08T08:44:27.559Z,1093.57
2016-09-08T08:45:27.560Z,1092.57
2016-09-08T08:46:27.559Z,1091.69
2016-09-08T08:47:27.575Z,1090.59
2016-09-08T08:48:27.598Z,1089.61
2016-09-08T08:49:27.569Z,1088.95
2016-09-08T08:50:27.569Z,1087.83
2016-09-08T08:51:27.577Z,1086.52
2016-09-08T08:52:27.571Z,1085.75
2016-09-08T08:53:27.611Z,1084.52
2016-09-08T08:54:27.573Z,1083.46
2016-09-08T08:55:27.571Z,1082.46
2016-09-08T08:56:27.569Z,1081.6
2016-09-08T08:57:27.571Z,1080.42
2016-09-08T08:58:27.564Z,1079.3
2016-09-08T08:59:27.569Z,1078.71
2016-09-08T09:00:27.580Z,1077.65
2016-09-08T09:01:27.570Z,1076.53
2016-09-08T09:02:27.577Z,1075.94
2016-09-08T09:03:27.570Z,1074.53
2016-09-08T09:04:27.584Z,1073.31
2016-09-08T09:05:27.592Z,1072.55
2016-09-08T09:06:27.593Z,1071.62
2016-09-08T09:07:27.637Z,1070.87
2016-09-08T09:08:27.632Z,1070
2016-09-08T09:09:27.591Z,1069.44
2016-09-08T09:10:27.584Z,1068.32
2016-09-08T09:11:27.581Z,1067.61
2016-09-08T09:12:27.608Z,1066.88
2016-09-08T09:13:27.602Z,1065.97
2016-09-08T09:14:27.584Z,1064.78
2016-09-08T09:15:27.588Z,1063.92
2016-09-08T09:16:27.586Z,1062.68
2016-09-08T09:17:27.594Z,1062
2016-09-08T09:18:27.584Z,1061.08
2016-09-08T09:19:27.593Z,1060.07
2016-09-08T09:20:27.584Z,1059.18
2016-09-08T09:21:27.590Z,1057.99
2016-09-08T09:22:27.625Z,1056.76
2016-09-08T09:23:27.586Z,1055.63
2016-09-08T09:24:27.593Z,1054.32
2016-09-08T09:25:27.605Z,1053.26
2016-09-08T09:26:27.607Z,1052.01
2016-09-08T09:27:27.606Z,1051.13
2016-09-08T09:28:27.608Z,1049.99
2016-09-08T09:29:27.598Z,1049.09
2016-09-08T09:30:27.605Z,1047.98
2016-09-08T09:31:27.604Z,1046.5
2016-09-08T09:32:27.609Z,1045.46
2016-09-08T09:33:27.610Z,1044.57
2016-09-08T09:34:27.633Z,1043.73
2016-09-08T09:35:27.612Z,1042.77
2016-09-08T09:36:27.666Z,1042.01
2016-09-08T09:37:27.613Z,1041.07
2016-09-08T09:38:27.605Z,1040.41
2016-09-08T09:39:27.626Z,1039.16
2016-09-08T09:40:27.617Z,1037.89
2016-09-08T09:41:27.624Z,1037.3
2016-09-08T09:42:27.617Z,1036.57
2016-09-08T09:43:27.634Z,1035.71
2016-09-08T09:44:27.618Z,1035.41
2016-09-08T09:45:27.612Z,1034.64
2016-09-08T09:46:27.635Z,1033.58
2016-09-08T09:47:27.628Z,1032.36
2016-09-08T09:48:27.626Z,1031.19
2016-09-08T09:49:27.626Z,1030.07
2016-09-08T09:50:27.637Z,1029.28
2016-09-08T09:51:27.620Z,1028.23
2016-09-08T09:52:27.676Z,1027.2
2016-09-08T09:53:27.638Z,1026.17
2016-09-08T09:54:27.618Z,1025.74
2016-09-08T09:55:27.639Z,1024.78
2016-09-08T09:56:27.635Z,1024.37
2016-09-08T09:57:27.641Z,1023.65
2016-09-08T09:58:27.647Z,1023.27
2016-09-08T09:59:27.625Z,1022.34
2016-09-08T10:00:27.633Z,1021.87
2016-09-08T10:01:27.650Z,1021.14
2016-09-08T10:02:27.640Z,1020.29
2016-09-08T10:03:27.634Z,1019.52
2016-09-08T10:04:27.647Z,1018.71
2016-09-08T10:05:27.643Z,1017.77
2016-09-08T10:06:27.640Z,1016.96
2016-09-08T10:07:27.654Z,1016.12
2016-09-08T10:08:27.659Z,1015.25
2016-09-08T10:09:27.640Z,1014.14
2016-09-08T10:10:27.647Z,1013.35
2016-09-08T10:11:27.648Z,1012.19
2016-09-08T10:12:27.646Z,1011.64
2016-09-08T10:13:27.648Z,1010.86
2016-09-08T10:14:27.653Z,1009.17
2016-09-08T10:15:27.646Z,1008.11
2016-09-08T10:16:27.655Z,1006.96
2016-09-08T10:17:27.656Z,1005.99
2016-09-08T10:18:27.653Z,1004.99
2016-09-08T10:19:27.659Z,1003.73
2016-09-08T10:20:27.650Z,1002.83
2016-09-08T10:21:27.667Z,1001.81
2016-09-08T10:22:27.654Z,1000.82
2016-09-08T10:23:27.667Z,1000
2016-09-08T10:24:27.665Z,999.3
2016-09-08T10:25:27.669Z,998.26
2016-09-08T10:26:27.824Z,997.64
2016-09-08T10:27:27.665Z,996.51
2016-09-08T10:28:27.669Z,995.21
2016-09-08T10:29:27.685Z,994.15
2016-09-08T10:30:27.672Z,993.35
2016-09-08T10:31:27.662Z,992.43
2016-09-08T10:32:27.665Z,991.47
2016-09-08T10:33:27.664Z,990.74
2016-09-08T10:34:27.695Z,989.79
2016-09-08T10:35:27.696Z,989.02
2016-09-08T10:36:27.685Z,987.86
2016-09-08T10:37:27.704Z,986.69
2016-09-08T10:38:27.696Z,985.63
2016-09-08T10:39:27.679Z,984.4
2016-09-08T10:40:27.690Z,982.68
2016-09-08T10:41:27.687Z,981.38
2016-09-08T10:42:27.799Z,980.1
2016-09-08T10:43:27.687Z,978.9
2016-09-08T10:44:27.691Z,977.98
2016-09-08T10:45:27.702Z,977.15
2016-09-08T10:46:27.690Z,975.98
2016-09-08T10:47:27.703Z,975.03
2016-09-08T10:48:27.680Z,974.23
2016-09-08T10:49:27.685Z,973.36
2016-09-08T10:50:27.700Z,973.01
2016-09-08T10:51:27.693Z,972.04
2016-09-08T10:52:27.712Z,971
2016-09-08T10:53:27.707Z,969.56
2016-09-08T10:54:27.704Z,968
2016-09-08T10:55:27.699Z,966.42
2016-09-08T10:56:27.729Z,964.94
2016-09-08T10:57:27.707Z,963.69
2016-09-08T10:58:27.712Z,962.15
2016-09-08T10:59:27.737Z,960.66
2016-09-08T11:00:27.696Z,958.9
2016-09-08T11:01:27.714Z,957.35
2016-09-08T11:02:27.714Z,956.18
2016-09-08T11:03:27.714Z,954.16
2016-09-08T11:04:27.737Z,952.75
2016-09-08T11:05:27.771Z,951.24
2016-09-08T11:06:27.710Z,950.33
2016-09-08T11:07:27.713Z,950.32
2016-09-08T11:08:27.716Z,949.64
2016-09-08T11:09:27.711Z,949.21
2016-09-08T11:10:27.719Z,948.25
2016-09-08T11:11:27.713Z,948.26
2016-09-08T11:12:27.724Z,948.13
2016-09-08T11:13:27.716Z,947.33
2016-09-08T11:14:27.717Z,946.71
2016-09-08T11:15:27.727Z,945.59
2016-09-08T11:16:27.730Z,944.44
2016-09-08T11:17:27.714Z,943.22
2016-09-08T11:18:27.730Z,941.8
2016-09-08T11:19:27.729Z,941.02
2016-09-08T11:20:27.728Z,940.31
2016-09-08T11:21:27.726Z,938.89
2016-09-08T11:22:27.733Z,938.43
2016-09-08T11:23:27.730Z,938.57
2016-09-08T11:24:27.732Z,938.06
2016-09-08T11:25:27.728Z,937.33
2016-09-08T11:26:27.805Z,936.62
2016-09-08T11:27:27.735Z,936.22
2016-09-08T11:28:27.728Z,934.98
2016-09-08T11:29:27.731Z,934.54
2016-09-08T11:30:27.736Z,934.26
2016-09-08T11:31:27.761Z,933.89
2016-09-08T11:32:27.736Z,932.8
2016-09-08T11:33:27.735Z,932.43
2016-09-08T11:34:27.747Z,932.79
2016-09-08T11:35:27.739Z,932.91
2016-09-08T11:36:27.748Z,932.32
2016-09-08T11:37:27.755Z,931.85
2016-09-08T11:38:27.745Z,931.7
2016-09-08T11:39:27.751Z,931.83
2016-09-08T11:40:27.744Z,931.7
2016-09-08T11:41:27.754Z,931.24
2016-09-08T11:42:27.759Z,930.62
2016-09-08T11:43:27.779Z,930.28
2016-09-08T11:44:27.773Z,929.72
2016-09-08T11:45:27.776Z,929.18
2016-09-08T11:46:27.766Z,928.9
2016-09-08T11:47:27.761Z,928.54
2016-09-08T11:48:27.762Z,927.87
2016-09-08T11:49:27.779Z,926.63
2016-09-08T11:50:27.830Z,926.62
2016-09-08T11:51:27.783Z,926.59
2016-09-08T11:52:27.763Z,925.92
2016-09-08T11:53:27.762Z,925.3
2016-09-08T11:54:27.767Z,924.31
2016-09-08T11:55:27.794Z,923.34
2016-09-08T11:56:27.768Z,922
2016-09-08T11:57:27.761Z,921.34
2016-09-08T11:58:27.792Z,920.6
2016-09-08T11:59:27.759Z,919.94
2016-09-08T12:00:27.768Z,919.57
2016-09-08T12:01:27.776Z,919.67
2016-09-08T12:02:27.793Z,919.6
2016-09-08T12:03:27.812Z,920.07
2016-09-08T12:04:27.762Z,919.97
2016-09-08T12:05:27.766Z,919.73
2016-09-08T12:06:27.774Z,919.62
2016-09-08T12:07:27.801Z,919.21
2016-09-08T12:08:27.785Z,919.47
2016-09-08T12:09:27.781Z,919
2016-09-08T12:10:27.790Z,919.09
2016-09-08T12:11:27.782Z,918.97
2016-09-08T12:12:27.790Z,918.6